sensor_id;sensor_type;location;lat;lon;timestamp;P1;durP1;ratioP1;P2;durP2;ratioP2
37777;SDS011;23615;51.506;7.678;2022-12-07T00:01:07;30.43;;;23.87;;
37777;SDS011;23615;51.506;7.678;2022-12-07T00:03:47;30.58;;;24.08;;
37777;SDS011;23615;51.506;7.678;2022-12-07T00:06:14;30.27;;;24.35;;
37777;SDS011;23615;51.506;7.678;2022-12-07T00:08:41;29.33;;;24.20;;
37777;SDS011;23615;51.506;7.678;2022-12-07T00:11:07;28.45;;;22.80;;
37777;SDS011;23615;51.506;7.678;2022-12-07T00:13:34;30.10;;;23.45;;
37777;SDS011;23615;51.506;7.678;2022-12-07T00:16:04;28.42;;;23.40;;
37777;SDS011;23615;51.506;7.678;2022-12-07T00:18:32;30.67;;;22.92;;
37777;SDS011;23615;51.506;7.678;2022-12-07T00:21:04;31.53;;;24.00;;
37777;SDS011;23615;51.506;7.678;2022-12-07T00:23:34;28.20;;;22.42;;
37777;SDS011;23615;51.506;7.678;2022-12-07T00:28:30;30.05;;;22.17;;
37777;SDS011;23615;51.506;7.678;2022-12-07T00:31:06;27.50;;;22.37;;
37777;SDS011;23615;51.506;7.678;2022-12-07T00:33:36;28.38;;;22.38;;
37777;SDS011;23615;51.506;7.678;2022-12-07T00:36:03;28.77;;;22.73;;
37777;SDS011;23615;51.506;7.678;2022-12-07T00:38:32;25.92;;;21.70;;
37777;SDS011;23615;51.506;7.678;2022-12-07T00:41:00;26.30;;;21.63;;
37777;SDS011;23615;51.506;7.678;2022-12-07T00:43:29;27.38;;;21.38;;
37777;SDS011;23615;51.506;7.678;2022-12-07T00:45:55;26.77;;;20.50;;
37777;SDS011;23615;51.506;7.678;2022-12-07T00:48:21;23.73;;;20.17;;
37777;SDS011;23615;51.506;7.678;2022-12-07T00:50:47;22.48;;;18.00;;
37777;SDS011;23615;51.506;7.678;2022-12-07T00:53:12;24.02;;;18.90;;
37777;SDS011;23615;51.506;7.678;2022-12-07T00:55:38;22.08;;;18.40;;
37777;SDS011;23615;51.506;7.678;2022-12-07T00:58:03;22.10;;;18.10;;
37777;SDS011;23615;51.506;7.678;2022-12-07T01:00:29;21.80;;;18.10;;
37777;SDS011;23615;51.506;7.678;2022-12-07T01:02:55;21.10;;;17.90;;
37777;SDS011;23615;51.506;7.678;2022-12-07T01:05:21;22.30;;;19.27;;
37777;SDS011;23615;51.506;7.678;2022-12-07T01:07:46;22.87;;;18.90;;
37777;SDS011;23615;51.506;7.678;2022-12-07T01:10:12;22.63;;;19.00;;
37777;SDS011;23615;51.506;7.678;2022-12-07T01:12:38;23.17;;;19.52;;
37777;SDS011;23615;51.506;7.678;2022-12-07T01:15:04;22.38;;;19.98;;
37777;SDS011;23615;51.506;7.678;2022-12-07T01:17:30;25.23;;;20.38;;
37777;SDS011;23615;51.506;7.678;2022-12-07T01:19:55;24.87;;;19.37;;
37777;SDS011;23615;51.506;7.678;2022-12-07T01:22:20;24.83;;;19.70;;
37777;SDS011;23615;51.506;7.678;2022-12-07T01:24:46;24.30;;;20.30;;
37777;SDS011;23615;51.506;7.678;2022-12-07T01:27:12;23.17;;;19.50;;
37777;SDS011;23615;51.506;7.678;2022-12-07T01:29:38;23.08;;;19.95;;
37777;SDS011;23615;51.506;7.678;2022-12-07T01:32:03;24.27;;;20.42;;
37777;SDS011;23615;51.506;7.678;2022-12-07T01:34:29;23.60;;;20.37;;
37777;SDS011;23615;51.506;7.678;2022-12-07T01:36:54;26.13;;;20.23;;
37777;SDS011;23615;51.506;7.678;2022-12-07T01:39:19;24.27;;;18.83;;
37777;SDS011;23615;51.506;7.678;2022-12-07T01:41:44;23.73;;;19.87;;
37777;SDS011;23615;51.506;7.678;2022-12-07T01:46:52;23.55;;;19.80;;
37777;SDS011;23615;51.506;7.678;2022-12-07T01:49:24;22.60;;;19.40;;
37777;SDS011;23615;51.506;7.678;2022-12-07T01:52:09;21.45;;;18.70;;
37777;SDS011;23615;51.506;7.678;2022-12-07T01:54:39;21.33;;;18.67;;
37777;SDS011;23615;51.506;7.678;2022-12-07T01:57:06;21.92;;;17.63;;
37777;SDS011;23615;51.506;7.678;2022-12-07T01:59:33;22.40;;;18.10;;
37777;SDS011;23615;51.506;7.678;2022-12-07T02:01:59;20.27;;;16.88;;
37777;SDS011;23615;51.506;7.678;2022-12-07T02:04:29;21.27;;;18.83;;
37777;SDS011;23615;51.506;7.678;2022-12-07T02:06:55;22.00;;;18.55;;
37777;SDS011;23615;51.506;7.678;2022-12-07T02:09:22;22.20;;;18.13;;
37777;SDS011;23615;51.506;7.678;2022-12-07T02:11:47;20.40;;;17.13;;
37777;SDS011;23615;51.506;7.678;2022-12-07T02:14:13;20.65;;;17.25;;
37777;SDS011;23615;51.506;7.678;2022-12-07T02:16:41;18.93;;;16.63;;
37777;SDS011;23615;51.506;7.678;2022-12-07T02:19:38;19.38;;;16.52;;
37777;SDS011;23615;51.506;7.678;2022-12-07T02:28:07;22.48;;;17.85;;
37777;SDS011;23615;51.506;7.678;2022-12-07T02:30:47;19.95;;;16.58;;
37777;SDS011;23615;51.506;7.678;2022-12-07T02:33:16;22.13;;;18.00;;
37777;SDS011;23615;51.506;7.678;2022-12-07T02:35:56;19.17;;;16.80;;
37777;SDS011;23615;51.506;7.678;2022-12-07T02:41:22;21.05;;;17.45;;
37777;SDS011;23615;51.506;7.678;2022-12-07T02:44:02;20.65;;;16.63;;
37777;SDS011;23615;51.506;7.678;2022-12-07T02:46:36;21.33;;;15.55;;
37777;SDS011;23615;51.506;7.678;2022-12-07T02:49:05;18.77;;;16.77;;
37777;SDS011;23615;51.506;7.678;2022-12-07T02:51:33;19.60;;;16.33;;
37777;SDS011;23615;51.506;7.678;2022-12-07T02:53:58;20.23;;;16.92;;
37777;SDS011;23615;51.506;7.678;2022-12-07T03:07:42;19.83;;;16.83;;
37777;SDS011;23615;51.506;7.678;2022-12-07T03:10:34;19.45;;;17.05;;
37777;SDS011;23615;51.506;7.678;2022-12-07T03:19:15;21.42;;;17.45;;
37777;SDS011;23615;51.506;7.678;2022-12-07T03:21:44;20.25;;;17.00;;
37777;SDS011;23615;51.506;7.678;2022-12-07T03:24:18;19.33;;;16.23;;
37777;SDS011;23615;51.506;7.678;2022-12-07T03:27:01;21.02;;;17.38;;
37777;SDS011;23615;51.506;7.678;2022-12-07T03:29:34;22.20;;;16.65;;
37777;SDS011;23615;51.506;7.678;2022-12-07T03:32:25;16.25;;;14.55;;
37777;SDS011;23615;51.506;7.678;2022-12-07T03:35:01;18.73;;;15.63;;
37777;SDS011;23615;51.506;7.678;2022-12-07T03:37:40;18.58;;;14.70;;
37777;SDS011;23615;51.506;7.678;2022-12-07T03:40:15;19.15;;;16.08;;
37777;SDS011;23615;51.506;7.678;2022-12-07T03:42:51;19.02;;;15.20;;
37777;SDS011;23615;51.506;7.678;2022-12-07T03:45:17;16.25;;;14.48;;
37777;SDS011;23615;51.506;7.678;2022-12-07T03:50:21;16.13;;;14.00;;
37777;SDS011;23615;51.506;7.678;2022-12-07T03:53:02;19.20;;;15.45;;
37777;SDS011;23615;51.506;7.678;2022-12-07T03:55:34;21.35;;;15.13;;
37777;SDS011;23615;51.506;7.678;2022-12-07T03:58:04;19.95;;;16.42;;
37777;SDS011;23615;51.506;7.678;2022-12-07T04:00:33;18.93;;;14.70;;
37777;SDS011;23615;51.506;7.678;2022-12-07T04:02:59;17.38;;;15.30;;
37777;SDS011;23615;51.506;7.678;2022-12-07T04:05:24;20.00;;;15.30;;
37777;SDS011;23615;51.506;7.678;2022-12-07T04:07:50;19.17;;;15.82;;
37777;SDS011;23615;51.506;7.678;2022-12-07T04:10:15;18.87;;;15.00;;
37777;SDS011;23615;51.506;7.678;2022-12-07T04:12:41;20.80;;;15.47;;
37777;SDS011;23615;51.506;7.678;2022-12-07T04:15:06;18.47;;;14.43;;
37777;SDS011;23615;51.506;7.678;2022-12-07T04:17:32;18.20;;;14.25;;
37777;SDS011;23615;51.506;7.678;2022-12-07T04:19:58;18.30;;;14.30;;
37777;SDS011;23615;51.506;7.678;2022-12-07T04:22:23;17.57;;;14.33;;
37777;SDS011;23615;51.506;7.678;2022-12-07T04:24:48;17.17;;;14.47;;
37777;SDS011;23615;51.506;7.678;2022-12-07T04:27:14;17.47;;;13.97;;
37777;SDS011;23615;51.506;7.678;2022-12-07T04:29:39;16.57;;;14.27;;
37777;SDS011;23615;51.506;7.678;2022-12-07T04:32:04;16.13;;;13.50;;
37777;SDS011;23615;51.506;7.678;2022-12-07T04:34:30;17.47;;;14.20;;
37777;SDS011;23615;51.506;7.678;2022-12-07T04:36:55;18.30;;;15.13;;
37777;SDS011;23615;51.506;7.678;2022-12-07T04:39:22;20.73;;;15.63;;
37777;SDS011;23615;51.506;7.678;2022-12-07T04:41:52;20.70;;;15.32;;
37777;SDS011;23615;51.506;7.678;2022-12-07T04:44:18;20.30;;;16.02;;
37777;SDS011;23615;51.506;7.678;2022-12-07T04:46:45;21.37;;;15.53;;
37777;SDS011;23615;51.506;7.678;2022-12-07T04:49:11;21.73;;;16.27;;
37777;SDS011;23615;51.506;7.678;2022-12-07T04:51:37;20.53;;;16.27;;
37777;SDS011;23615;51.506;7.678;2022-12-07T04:54:03;21.13;;;16.50;;
37777;SDS011;23615;51.506;7.678;2022-12-07T04:56:28;21.33;;;15.52;;
37777;SDS011;23615;51.506;7.678;2022-12-07T04:58:54;21.42;;;17.00;;
37777;SDS011;23615;51.506;7.678;2022-12-07T05:01:20;20.43;;;16.63;;
37777;SDS011;23615;51.506;7.678;2022-12-07T05:03:46;19.87;;;16.17;;
37777;SDS011;23615;51.506;7.678;2022-12-07T05:06:12;21.90;;;15.60;;
37777;SDS011;23615;51.506;7.678;2022-12-07T05:08:38;19.75;;;15.98;;
37777;SDS011;23615;51.506;7.678;2022-12-07T05:11:04;17.93;;;15.30;;
37777;SDS011;23615;51.506;7.678;2022-12-07T05:13:31;21.83;;;15.77;;
37777;SDS011;23615;51.506;7.678;2022-12-07T05:15:57;21.67;;;16.83;;
37777;SDS011;23615;51.506;7.678;2022-12-07T05:18:23;18.45;;;14.82;;
37777;SDS011;23615;51.506;7.678;2022-12-07T05:20:48;17.25;;;14.48;;
37777;SDS011;23615;51.506;7.678;2022-12-07T05:23:14;16.57;;;13.40;;
37777;SDS011;23615;51.506;7.678;2022-12-07T05:25:39;19.73;;;15.20;;
37777;SDS011;23615;51.506;7.678;2022-12-07T05:28:05;17.27;;;13.73;;
37777;SDS011;23615;51.506;7.678;2022-12-07T05:30:31;18.58;;;14.75;;
37777;SDS011;23615;51.506;7.678;2022-12-07T05:32:57;16.75;;;12.30;;
37777;SDS011;23615;51.506;7.678;2022-12-07T05:35:22;15.33;;;12.67;;
37777;SDS011;23615;51.506;7.678;2022-12-07T05:37:48;16.17;;;12.40;;
37777;SDS011;23615;51.506;7.678;2022-12-07T05:40:13;14.23;;;11.80;;
37777;SDS011;23615;51.506;7.678;2022-12-07T05:42:40;16.33;;;12.13;;
37777;SDS011;23615;51.506;7.678;2022-12-07T05:45:05;15.45;;;11.00;;
37777;SDS011;23615;51.506;7.678;2022-12-07T05:47:31;14.38;;;12.30;;
37777;SDS011;23615;51.506;7.678;2022-12-07T05:49:57;16.38;;;11.63;;
37777;SDS011;23615;51.506;7.678;2022-12-07T05:52:22;15.48;;;10.95;;
37777;SDS011;23615;51.506;7.678;2022-12-07T05:54:48;13.63;;;10.93;;
37777;SDS011;23615;51.506;7.678;2022-12-07T05:57:13;15.50;;;11.63;;
37777;SDS011;23615;51.506;7.678;2022-12-07T05:59:39;15.70;;;11.80;;
37777;SDS011;23615;51.506;7.678;2022-12-07T06:02:06;15.35;;;12.10;;
37777;SDS011;23615;51.506;7.678;2022-12-07T06:04:37;18.00;;;12.93;;
37777;SDS011;23615;51.506;7.678;2022-12-07T06:07:04;16.95;;;12.82;;
37777;SDS011;23615;51.506;7.678;2022-12-07T06:09:30;17.58;;;12.25;;
37777;SDS011;23615;51.506;7.678;2022-12-07T06:11:57;18.67;;;13.50;;
37777;SDS011;23615;51.506;7.678;2022-12-07T06:14:41;18.65;;;14.02;;
37777;SDS011;23615;51.506;7.678;2022-12-07T06:17:07;17.87;;;13.63;;
37777;SDS011;23615;51.506;7.678;2022-12-07T06:19:33;18.83;;;13.93;;
37777;SDS011;23615;51.506;7.678;2022-12-07T06:21:58;16.17;;;13.80;;
37777;SDS011;23615;51.506;7.678;2022-12-07T06:24:24;17.60;;;13.43;;
37777;SDS011;23615;51.506;7.678;2022-12-07T06:26:52;15.88;;;13.38;;
37777;SDS011;23615;51.506;7.678;2022-12-07T06:29:24;16.33;;;12.43;;
37777;SDS011;23615;51.506;7.678;2022-12-07T06:31:50;16.63;;;13.13;;
37777;SDS011;23615;51.506;7.678;2022-12-07T06:34:17;20.20;;;13.67;;
37777;SDS011;23615;51.506;7.678;2022-12-07T06:36:52;18.83;;;13.07;;
37777;SDS011;23615;51.506;7.678;2022-12-07T06:39:23;18.40;;;13.55;;
37777;SDS011;23615;51.506;7.678;2022-12-07T06:41:52;19.75;;;13.00;;
37777;SDS011;23615;51.506;7.678;2022-12-07T06:44:26;17.38;;;13.38;;
37777;SDS011;23615;51.506;7.678;2022-12-07T06:46:55;21.02;;;13.93;;
37777;SDS011;23615;51.506;7.678;2022-12-07T06:49:23;16.23;;;12.93;;
37777;SDS011;23615;51.506;7.678;2022-12-07T06:51:48;20.33;;;13.68;;
37777;SDS011;23615;51.506;7.678;2022-12-07T06:54:14;19.47;;;13.70;;
37777;SDS011;23615;51.506;7.678;2022-12-07T06:56:40;18.95;;;13.70;;
37777;SDS011;23615;51.506;7.678;2022-12-07T06:59:07;16.50;;;12.80;;
37777;SDS011;23615;51.506;7.678;2022-12-07T07:01:33;19.20;;;13.57;;
37777;SDS011;23615;51.506;7.678;2022-12-07T07:03:59;17.25;;;13.18;;
37777;SDS011;23615;51.506;7.678;2022-12-07T07:06:24;17.63;;;12.67;;
37777;SDS011;23615;51.506;7.678;2022-12-07T07:08:50;17.75;;;13.77;;
37777;SDS011;23615;51.506;7.678;2022-12-07T07:11:15;16.88;;;13.15;;
37777;SDS011;23615;51.506;7.678;2022-12-07T07:13:41;17.27;;;12.07;;
37777;SDS011;23615;51.506;7.678;2022-12-07T07:16:06;18.13;;;12.63;;
37777;SDS011;23615;51.506;7.678;2022-12-07T07:18:32;18.70;;;12.75;;
37777;SDS011;23615;51.506;7.678;2022-12-07T07:20:58;15.90;;;12.17;;
37777;SDS011;23615;51.506;7.678;2022-12-07T07:23:26;15.20;;;12.00;;
37777;SDS011;23615;51.506;7.678;2022-12-07T07:25:51;14.88;;;11.88;;
37777;SDS011;23615;51.506;7.678;2022-12-07T07:28:24;15.85;;;11.07;;
37777;SDS011;23615;51.506;7.678;2022-12-07T07:30:49;14.05;;;10.20;;
37777;SDS011;23615;51.506;7.678;2022-12-07T07:33:14;16.23;;;10.43;;
37777;SDS011;23615;51.506;7.678;2022-12-07T07:35:40;15.07;;;10.53;;
37777;SDS011;23615;51.506;7.678;2022-12-07T07:38:05;13.70;;;11.03;;
37777;SDS011;23615;51.506;7.678;2022-12-07T07:40:31;15.93;;;11.57;;
37777;SDS011;23615;51.506;7.678;2022-12-07T07:42:56;14.52;;;11.52;;
37777;SDS011;23615;51.506;7.678;2022-12-07T07:45:24;14.83;;;10.87;;
37777;SDS011;23615;51.506;7.678;2022-12-07T07:47:50;16.17;;;11.65;;
37777;SDS011;23615;51.506;7.678;2022-12-07T07:50:15;16.17;;;10.73;;
37777;SDS011;23615;51.506;7.678;2022-12-07T07:52:42;13.95;;;11.38;;
37777;SDS011;23615;51.506;7.678;2022-12-07T07:55:07;14.77;;;11.23;;
37777;SDS011;23615;51.506;7.678;2022-12-07T07:57:33;18.55;;;11.68;;
37777;SDS011;23615;51.506;7.678;2022-12-07T07:59:59;17.77;;;11.65;;
37777;SDS011;23615;51.506;7.678;2022-12-07T08:02:24;17.90;;;11.50;;
37777;SDS011;23615;51.506;7.678;2022-12-07T08:04:50;13.80;;;10.83;;
37777;SDS011;23615;51.506;7.678;2022-12-07T08:07:15;15.37;;;10.10;;
37777;SDS011;23615;51.506;7.678;2022-12-07T08:09:41;16.27;;;10.63;;
37777;SDS011;23615;51.506;7.678;2022-12-07T08:12:06;14.05;;;10.60;;
37777;SDS011;23615;51.506;7.678;2022-12-07T08:14:32;17.53;;;10.93;;
37777;SDS011;23615;51.506;7.678;2022-12-07T08:16:58;15.37;;;10.80;;
37777;SDS011;23615;51.506;7.678;2022-12-07T08:19:24;13.77;;;9.90;;
37777;SDS011;23615;51.506;7.678;2022-12-07T08:21:49;12.90;;;9.00;;
37777;SDS011;23615;51.506;7.678;2022-12-07T08:24:15;12.82;;;9.10;;
37777;SDS011;23615;51.506;7.678;2022-12-07T08:26:40;11.77;;;8.70;;
37777;SDS011;23615;51.506;7.678;2022-12-07T08:29:06;11.97;;;8.10;;
37777;SDS011;23615;51.506;7.678;2022-12-07T08:31:31;10.63;;;7.27;;
37777;SDS011;23615;51.506;7.678;2022-12-07T08:33:57;11.35;;;7.70;;
37777;SDS011;23615;51.506;7.678;2022-12-07T08:36:22;12.95;;;8.18;;
37777;SDS011;23615;51.506;7.678;2022-12-07T08:38:48;11.30;;;8.17;;
37777;SDS011;23615;51.506;7.678;2022-12-07T08:41:14;9.43;;;7.47;;
37777;SDS011;23615;51.506;7.678;2022-12-07T08:43:39;10.30;;;7.90;;
37777;SDS011;23615;51.506;7.678;2022-12-07T08:46:12;10.97;;;7.70;;
37777;SDS011;23615;51.506;7.678;2022-12-07T08:48:55;10.70;;;7.53;;
37777;SDS011;23615;51.506;7.678;2022-12-07T08:51:23;13.85;;;8.15;;
37777;SDS011;23615;51.506;7.678;2022-12-07T08:53:49;11.43;;;7.40;;
37777;SDS011;23615;51.506;7.678;2022-12-07T08:56:17;11.63;;;6.97;;
37777;SDS011;23615;51.506;7.678;2022-12-07T08:58:42;12.63;;;7.18;;
37777;SDS011;23615;51.506;7.678;2022-12-07T09:01:08;9.57;;;6.43;;
37777;SDS011;23615;51.506;7.678;2022-12-07T09:03:34;11.52;;;7.03;;
37777;SDS011;23615;51.506;7.678;2022-12-07T09:05:59;10.67;;;6.87;;
37777;SDS011;23615;51.506;7.678;2022-12-07T09:08:27;8.65;;;6.28;;
37777;SDS011;23615;51.506;7.678;2022-12-07T09:10:58;12.13;;;6.60;;
37777;SDS011;23615;51.506;7.678;2022-12-07T09:13:23;7.70;;;5.43;;
37777;SDS011;23615;51.506;7.678;2022-12-07T09:15:48;9.13;;;6.57;;
37777;SDS011;23615;51.506;7.678;2022-12-07T09:18:13;13.10;;;7.60;;
37777;SDS011;23615;51.506;7.678;2022-12-07T09:20:39;10.30;;;6.47;;
37777;SDS011;23615;51.506;7.678;2022-12-07T09:23:07;11.47;;;6.60;;
37777;SDS011;23615;51.506;7.678;2022-12-07T09:25:33;12.82;;;6.88;;
37777;SDS011;23615;51.506;7.678;2022-12-07T09:27:59;9.85;;;5.57;;
37777;SDS011;23615;51.506;7.678;2022-12-07T09:30:25;10.90;;;5.93;;
37777;SDS011;23615;51.506;7.678;2022-12-07T09:32:54;8.97;;;5.73;;
37777;SDS011;23615;51.506;7.678;2022-12-07T09:35:21;11.43;;;5.80;;
37777;SDS011;23615;51.506;7.678;2022-12-07T09:37:47;11.93;;;5.90;;
37777;SDS011;23615;51.506;7.678;2022-12-07T09:40:13;10.18;;;6.30;;
37777;SDS011;23615;51.506;7.678;2022-12-07T09:42:41;13.13;;;7.05;;
37777;SDS011;23615;51.506;7.678;2022-12-07T09:45:52;14.07;;;7.40;;
37777;SDS011;23615;51.506;7.678;2022-12-07T09:48:00;13.95;;;7.20;;
37777;SDS011;23615;51.506;7.678;2022-12-07T09:50:28;12.30;;;7.72;;
37777;SDS011;23615;51.506;7.678;2022-12-07T09:52:55;17.27;;;9.95;;
37777;SDS011;23615;51.506;7.678;2022-12-07T09:55:30;11.13;;;8.57;;
37777;SDS011;23615;51.506;7.678;2022-12-07T09:57:56;13.13;;;8.90;;
37777;SDS011;23615;51.506;7.678;2022-12-07T10:00:23;11.45;;;8.43;;
37777;SDS011;23615;51.506;7.678;2022-12-07T10:02:59;13.18;;;8.90;;
37777;SDS011;23615;51.506;7.678;2022-12-07T10:05:27;12.65;;;8.02;;
37777;SDS011;23615;51.506;7.678;2022-12-07T10:08:05;13.70;;;8.50;;
37777;SDS011;23615;51.506;7.678;2022-12-07T10:10:31;13.68;;;8.13;;
37777;SDS011;23615;51.506;7.678;2022-12-07T10:13:02;9.68;;;7.47;;
37777;SDS011;23615;51.506;7.678;2022-12-07T10:16:05;11.52;;;7.38;;
37777;SDS011;23615;51.506;7.678;2022-12-07T10:23:30;11.33;;;8.03;;
37777;SDS011;23615;51.506;7.678;2022-12-07T10:25:55;13.88;;;8.95;;
37777;SDS011;23615;51.506;7.678;2022-12-07T10:28:21;14.10;;;9.33;;
37777;SDS011;23615;51.506;7.678;2022-12-07T10:30:48;15.67;;;10.03;;
37777;SDS011;23615;51.506;7.678;2022-12-07T10:34:11;13.40;;;9.70;;
37777;SDS011;23615;51.506;7.678;2022-12-07T10:36:17;13.55;;;9.68;;
37777;SDS011;23615;51.506;7.678;2022-12-07T10:38:51;12.98;;;8.98;;
37777;SDS011;23615;51.506;7.678;2022-12-07T10:41:24;13.07;;;8.55;;
37777;SDS011;23615;51.506;7.678;2022-12-07T10:43:51;13.77;;;9.13;;
37777;SDS011;23615;51.506;7.678;2022-12-07T10:46:23;16.10;;;10.30;;
37777;SDS011;23615;51.506;7.678;2022-12-07T10:49:21;14.32;;;8.40;;
37777;SDS011;23615;51.506;7.678;2022-12-07T10:55:20;12.75;;;8.95;;
37777;SDS011;23615;51.506;7.678;2022-12-07T11:00:19;14.00;;;9.10;;
37777;SDS011;23615;51.506;7.678;2022-12-07T11:05:43;11.32;;;8.75;;
37777;SDS011;23615;51.506;7.678;2022-12-07T11:08:38;14.80;;;9.13;;
37777;SDS011;23615;51.506;7.678;2022-12-07T11:13:56;14.65;;;10.45;;
37777;SDS011;23615;51.506;7.678;2022-12-07T11:22:51;16.70;;;9.20;;
37777;SDS011;23615;51.506;7.678;2022-12-07T11:25:46;15.10;;;8.82;;
37777;SDS011;23615;51.506;7.678;2022-12-07T11:28:21;14.50;;;9.40;;
37777;SDS011;23615;51.506;7.678;2022-12-07T11:31:11;11.13;;;9.82;;
37777;SDS011;23615;51.506;7.678;2022-12-07T11:33:49;13.57;;;9.48;;
37777;SDS011;23615;51.506;7.678;2022-12-07T11:39:35;15.93;;;9.05;;
37777;SDS011;23615;51.506;7.678;2022-12-07T11:42:14;14.13;;;10.10;;
37777;SDS011;23615;51.506;7.678;2022-12-07T11:44:56;12.90;;;9.70;;
37777;SDS011;23615;51.506;7.678;2022-12-07T11:48:14;13.48;;;10.10;;
37777;SDS011;23615;51.506;7.678;2022-12-07T11:55:40;13.65;;;8.18;;
37777;SDS011;23615;51.506;7.678;2022-12-07T12:01:04;8.80;;;6.65;;
37777;SDS011;23615;51.506;7.678;2022-12-07T12:03:38;10.07;;;6.80;;
37777;SDS011;23615;51.506;7.678;2022-12-07T12:06:13;9.33;;;6.27;;
37777;SDS011;23615;51.506;7.678;2022-12-07T12:08:40;9.02;;;6.18;;
37777;SDS011;23615;51.506;7.678;2022-12-07T12:14:26;8.98;;;5.60;;
37777;SDS011;23615;51.506;7.678;2022-12-07T12:17:07;8.80;;;5.70;;
37777;SDS011;23615;51.506;7.678;2022-12-07T12:19:59;8.00;;;5.72;;
37777;SDS011;23615;51.506;7.678;2022-12-07T12:22:42;7.85;;;5.05;;
37777;SDS011;23615;51.506;7.678;2022-12-07T12:25:20;6.55;;;4.72;;
37777;SDS011;23615;51.506;7.678;2022-12-07T12:27:46;6.72;;;4.65;;
37777;SDS011;23615;51.506;7.678;2022-12-07T12:30:36;8.33;;;5.50;;
37777;SDS011;23615;51.506;7.678;2022-12-07T12:33:25;9.50;;;4.63;;
37777;SDS011;23615;51.506;7.678;2022-12-07T12:49:42;7.30;;;4.32;;
37777;SDS011;23615;51.506;7.678;2022-12-07T12:54:41;8.18;;;4.38;;
37777;SDS011;23615;51.506;7.678;2022-12-07T12:57:28;7.78;;;5.05;;
37777;SDS011;23615;51.506;7.678;2022-12-07T13:02:55;7.43;;;4.35;;
37777;SDS011;23615;51.506;7.678;2022-12-07T13:05:33;9.40;;;4.95;;
37777;SDS011;23615;51.506;7.678;2022-12-07T13:07:59;6.38;;;3.95;;
37777;SDS011;23615;51.506;7.678;2022-12-07T13:12:58;5.88;;;3.70;;
37777;SDS011;23615;51.506;7.678;2022-12-07T13:15:34;6.87;;;3.57;;
37777;SDS011;23615;51.506;7.678;2022-12-07T13:18:00;8.60;;;4.07;;
37777;SDS011;23615;51.506;7.678;2022-12-07T13:20:44;7.38;;;3.50;;
37777;SDS011;23615;51.506;7.678;2022-12-07T13:23:12;9.30;;;4.05;;
37777;SDS011;23615;51.506;7.678;2022-12-07T13:25:44;6.90;;;3.17;;
37777;SDS011;23615;51.506;7.678;2022-12-07T13:28:19;5.90;;;3.33;;
37777;SDS011;23615;51.506;7.678;2022-12-07T13:30:54;5.68;;;3.00;;
37777;SDS011;23615;51.506;7.678;2022-12-07T13:33:27;6.27;;;2.40;;
37777;SDS011;23615;51.506;7.678;2022-12-07T13:35:54;9.38;;;2.50;;
37777;SDS011;23615;51.506;7.678;2022-12-07T13:38:28;6.47;;;2.20;;
37777;SDS011;23615;51.506;7.678;2022-12-07T13:41:13;4.13;;;2.17;;
37777;SDS011;23615;51.506;7.678;2022-12-07T13:43:52;5.20;;;2.30;;
37777;SDS011;23615;51.506;7.678;2022-12-07T13:46:25;4.77;;;2.20;;
37777;SDS011;23615;51.506;7.678;2022-12-07T13:49:25;4.78;;;2.10;;
37777;SDS011;23615;51.506;7.678;2022-12-07T13:51:52;5.85;;;2.20;;
37777;SDS011;23615;51.506;7.678;2022-12-07T13:54:19;4.97;;;2.42;;
37777;SDS011;23615;51.506;7.678;2022-12-07T13:56:54;6.88;;;2.28;;
37777;SDS011;23615;51.506;7.678;2022-12-07T13:59:21;4.13;;;2.13;;
37777;SDS011;23615;51.506;7.678;2022-12-07T14:01:49;4.68;;;1.77;;
37777;SDS011;23615;51.506;7.678;2022-12-07T14:04:16;5.90;;;2.55;;
37777;SDS011;23615;51.506;7.678;2022-12-07T14:06:59;4.90;;;2.27;;
37777;SDS011;23615;51.506;7.678;2022-12-07T14:09:27;7.13;;;2.55;;
37777;SDS011;23615;51.506;7.678;2022-12-07T14:11:54;5.75;;;2.10;;
37777;SDS011;23615;51.506;7.678;2022-12-07T14:14:22;4.18;;;1.90;;
37777;SDS011;23615;51.506;7.678;2022-12-07T14:19:46;5.03;;;2.22;;
37777;SDS011;23615;51.506;7.678;2022-12-07T14:24:50;4.20;;;1.65;;
37777;SDS011;23615;51.506;7.678;2022-12-07T14:27:19;6.45;;;2.40;;
37777;SDS011;23615;51.506;7.678;2022-12-07T14:29:47;5.80;;;2.05;;
37777;SDS011;23615;51.506;7.678;2022-12-07T14:32:18;5.10;;;2.45;;
37777;SDS011;23615;51.506;7.678;2022-12-07T14:37:35;4.15;;;1.42;;
37777;SDS011;23615;51.506;7.678;2022-12-07T14:40:00;4.28;;;1.73;;
37777;SDS011;23615;51.506;7.678;2022-12-07T14:42:27;4.72;;;1.83;;
37777;SDS011;23615;51.506;7.678;2022-12-07T14:44:55;4.27;;;1.87;;
37777;SDS011;23615;51.506;7.678;2022-12-07T14:47:21;7.40;;;1.80;;
37777;SDS011;23615;51.506;7.678;2022-12-07T14:49:46;4.97;;;1.77;;
37777;SDS011;23615;51.506;7.678;2022-12-07T14:52:13;4.60;;;1.63;;
37777;SDS011;23615;51.506;7.678;2022-12-07T14:54:42;7.00;;;2.38;;
37777;SDS011;23615;51.506;7.678;2022-12-07T14:57:08;3.97;;;1.70;;
37777;SDS011;23615;51.506;7.678;2022-12-07T14:59:35;3.00;;;1.73;;
37777;SDS011;23615;51.506;7.678;2022-12-07T15:02:00;5.70;;;2.00;;
37777;SDS011;23615;51.506;7.678;2022-12-07T15:04:25;7.80;;;2.30;;
37777;SDS011;23615;51.506;7.678;2022-12-07T15:06:55;6.13;;;1.80;;
37777;SDS011;23615;51.506;7.678;2022-12-07T15:09:22;5.10;;;1.95;;
37777;SDS011;23615;51.506;7.678;2022-12-07T15:11:47;3.60;;;2.70;;
37777;SDS011;23615;51.506;7.678;2022-12-07T15:14:12;5.87;;;3.03;;
37777;SDS011;23615;51.506;7.678;2022-12-07T15:16:39;6.88;;;2.92;;
37777;SDS011;23615;51.506;7.678;2022-12-07T15:19:09;5.90;;;3.10;;
37777;SDS011;23615;51.506;7.678;2022-12-07T15:21:37;14.00;;;6.78;;
37777;SDS011;23615;51.506;7.678;2022-12-07T15:24:02;8.23;;;3.67;;
37777;SDS011;23615;51.506;7.678;2022-12-07T15:26:28;5.77;;;2.87;;
37777;SDS011;23615;51.506;7.678;2022-12-07T15:28:53;7.37;;;3.27;;
37777;SDS011;23615;51.506;7.678;2022-12-07T15:31:19;7.03;;;3.22;;
37777;SDS011;23615;51.506;7.678;2022-12-07T15:33:44;5.37;;;2.53;;
37777;SDS011;23615;51.506;7.678;2022-12-07T15:36:19;4.43;;;1.90;;
37777;SDS011;23615;51.506;7.678;2022-12-07T15:38:47;5.60;;;2.15;;
37777;SDS011;23615;51.506;7.678;2022-12-07T15:41:12;3.70;;;1.27;;
37777;SDS011;23615;51.506;7.678;2022-12-07T15:43:38;3.23;;;1.30;;
37777;SDS011;23615;51.506;7.678;2022-12-07T15:46:22;2.97;;;1.60;;
37777;SDS011;23615;51.506;7.678;2022-12-07T15:48:47;3.40;;;2.00;;
37777;SDS011;23615;51.506;7.678;2022-12-07T15:51:12;6.03;;;2.27;;
37777;SDS011;23615;51.506;7.678;2022-12-07T15:53:38;4.30;;;2.40;;
37777;SDS011;23615;51.506;7.678;2022-12-07T15:56:07;5.17;;;2.27;;
37777;SDS011;23615;51.506;7.678;2022-12-07T15:58:33;2.88;;;1.80;;
37777;SDS011;23615;51.506;7.678;2022-12-07T16:00:59;5.68;;;2.38;;
37777;SDS011;23615;51.506;7.678;2022-12-07T16:03:24;4.00;;;2.20;;
37777;SDS011;23615;51.506;7.678;2022-12-07T16:05:51;4.85;;;2.30;;
37777;SDS011;23615;51.506;7.678;2022-12-07T16:08:18;3.22;;;2.20;;
37777;SDS011;23615;51.506;7.678;2022-12-07T16:10:44;4.88;;;2.58;;
37777;SDS011;23615;51.506;7.678;2022-12-07T16:13:10;3.72;;;2.50;;
37777;SDS011;23615;51.506;7.678;2022-12-07T16:15:39;7.78;;;3.20;;
37777;SDS011;23615;51.506;7.678;2022-12-07T16:18:04;5.57;;;2.55;;
37777;SDS011;23615;51.506;7.678;2022-12-07T16:20:30;12.13;;;7.30;;
37777;SDS011;23615;51.506;7.678;2022-12-07T16:22:55;16.60;;;10.07;;
37777;SDS011;23615;51.506;7.678;2022-12-07T16:25:20;28.50;;;17.90;;